createdAt,value
2022-08-23T00:00:41.700Z,1.50
2022-08-23T00:01:40.668Z,1.50
2022-08-23T00:02:40.685Z,1.50
2022-08-23T00:03:40.660Z,1.40
2022-08-23T00:04:40.628Z,1.60
2022-08-23T00:05:41.639Z,1.60
2022-08-23T00:06:40.609Z,1.50
2022-08-23T00:07:40.616Z,1.50
2022-08-23T00:08:40.579Z,1.50
2022-08-23T00:09:41.571Z,1.40
2022-08-23T00:10:40.692Z,1.40
2022-08-23T00:11:40.586Z,1.50
2022-08-23T00:12:40.541Z,1.40
2022-08-23T00:13:48.033Z,1.60
2022-08-23T00:14:41.568Z,1.40
2022-08-23T00:15:40.522Z,1.50
2022-08-23T00:16:40.493Z,1.60
2022-08-23T00:17:40.481Z,1.60
2022-08-23T00:18:40.469Z,1.60
2022-08-23T00:19:40.462Z,1.60
2022-08-23T00:20:40.467Z,1.60
2022-08-23T00:21:40.439Z,1.50
2022-08-23T00:22:40.424Z,1.50
2022-08-23T00:23:40.413Z,1.60
2022-08-23T00:24:41.004Z,1.60
2022-08-23T00:25:40.410Z,1.60
2022-08-23T00:26:40.381Z,1.60
2022-08-23T00:27:40.366Z,1.70
2022-08-23T00:28:40.356Z,1.60
2022-08-23T00:29:40.353Z,1.70
2022-08-23T00:30:40.358Z,1.70
2022-08-23T00:31:40.368Z,1.70
2022-08-23T00:32:40.314Z,1.50
2022-08-23T00:33:40.303Z,1.60
2022-08-23T00:34:40.293Z,1.60
2022-08-23T00:35:40.282Z,1.50
2022-08-23T00:36:40.288Z,1.70
2022-08-23T00:37:40.263Z,1.50
2022-08-23T00:38:40.656Z,1.50
2022-08-23T00:39:40.302Z,1.60
2022-08-23T00:40:40.240Z,1.60
2022-08-23T00:41:40.236Z,1.50
2022-08-23T00:42:40.523Z,1.50
2022-08-23T00:43:40.192Z,1.60
2022-08-23T00:44:40.179Z,1.70
2022-08-23T00:45:40.217Z,1.60
2022-08-23T00:46:40.562Z,1.50
2022-08-23T00:47:40.157Z,1.50
2022-08-23T00:48:40.132Z,1.40
2022-08-23T00:49:40.126Z,1.30
2022-08-23T00:50:40.112Z,1.30
2022-08-23T00:51:52.683Z,1.30
2022-08-23T00:52:41.087Z,1.40
2022-08-23T00:53:40.081Z,1.50
2022-08-23T00:54:40.075Z,1.30
2022-08-23T00:55:40.057Z,1.40
2022-08-23T00:56:40.061Z,1.30
2022-08-23T00:57:40.046Z,1.20
2022-08-23T00:58:40.020Z,1.30
2022-08-23T00:59:40.009Z,1.40
2022-08-23T01:00:39.999Z,1.40
2022-08-23T01:01:40.145Z,1.50
2022-08-23T01:02:39.980Z,1.40
2022-08-23T01:03:40.232Z,1.50
2022-08-23T01:04:39.958Z,1.40
2022-08-23T01:05:39.963Z,1.30
2022-08-23T01:06:39.989Z,1.40
2022-08-23T01:07:39.953Z,1.50
2022-08-23T01:08:39.946Z,1.30
2022-08-23T01:09:39.912Z,1.40
2022-08-23T01:10:39.912Z,1.40
2022-08-23T01:11:39.881Z,1.40
2022-08-23T01:12:39.887Z,1.40
2022-08-23T01:13:39.855Z,1.40
2022-08-23T01:14:39.858Z,1.40
2022-08-23T01:15:39.832Z,1.40
2022-08-23T01:16:39.841Z,1.40
2022-08-23T01:17:39.830Z,1.40
2022-08-23T01:18:39.796Z,1.60
2022-08-23T01:19:39.792Z,1.40
2022-08-23T01:20:40.395Z,1.50
2022-08-23T01:21:41.329Z,1.50
2022-08-23T01:22:39.771Z,1.40
2022-08-23T01:23:39.742Z,1.40
2022-08-23T01:25:06.233Z,1.50
2022-08-23T01:25:40.726Z,1.40
2022-08-23T01:26:39.710Z,1.60
2022-08-23T01:27:39.718Z,1.40
2022-08-23T01:28:39.691Z,1.40
2022-08-23T01:29:39.678Z,1.40
2022-08-23T01:30:39.665Z,1.60
2022-08-23T01:31:39.879Z,1.50
2022-08-23T01:32:39.659Z,1.70
2022-08-23T01:33:39.626Z,1.70
2022-08-23T01:34:44.706Z,1.70
2022-08-23T01:35:41.448Z,1.70
2022-08-23T01:36:39.600Z,1.70
2022-08-23T01:37:39.608Z,1.90
2022-08-23T01:38:39.575Z,1.90
2022-08-23T01:39:39.585Z,1.90
2022-08-23T01:40:39.552Z,1.80
2022-08-23T01:41:39.573Z,1.80
2022-08-23T01:42:39.530Z,2.00
2022-08-23T01:43:39.566Z,1.70
2022-08-23T01:44:39.527Z,1.70
2022-08-23T01:45:39.762Z,1.90
2022-08-23T01:46:39.995Z,1.90
2022-08-23T01:47:39.477Z,1.90
2022-08-23T01:48:39.469Z,1.60
2022-08-23T01:49:39.453Z,1.70
2022-08-23T01:50:39.580Z,1.70
2022-08-23T01:51:39.431Z,1.90
2022-08-23T01:52:39.454Z,1.90
2022-08-23T01:53:40.412Z,1.70
2022-08-23T01:54:39.415Z,1.90
2022-08-23T01:55:39.408Z,1.50
2022-08-23T01:56:39.535Z,1.70
2022-08-23T01:57:39.366Z,1.80
2022-08-23T01:58:39.356Z,1.70
2022-08-23T01:59:39.362Z,1.70
2022-08-23T02:00:39.330Z,1.60
2022-08-23T02:01:39.381Z,1.60
2022-08-23T02:02:39.311Z,1.40
2022-08-23T02:03:39.331Z,1.60
2022-08-23T02:04:39.288Z,1.40
2022-08-23T02:05:39.470Z,1.30
2022-08-23T02:06:39.264Z,1.30
2022-08-23T02:07:39.272Z,1.40
2022-08-23T02:08:39.241Z,1.40
2022-08-23T02:09:39.415Z,1.20
2022-08-23T02:10:39.222Z,1.10
2022-08-23T02:11:39.221Z,1.40
2022-08-23T02:12:39.204Z,1.30
2022-08-23T02:13:39.216Z,1.30
2022-08-23T02:14:40.663Z,1.50
2022-08-23T02:15:39.167Z,1.30
2022-08-23T02:16:39.148Z,1.30
2022-08-23T02:17:39.140Z,1.40
2022-08-23T02:18:39.157Z,1.50
2022-08-23T02:19:39.122Z,1.50
2022-08-23T02:20:39.109Z,1.40
2022-08-23T02:21:39.103Z,1.40
2022-08-23T02:22:39.083Z,1.50
2022-08-23T02:23:39.091Z,1.30
2022-08-23T02:24:39.262Z,1.50
2022-08-23T02:25:39.060Z,1.50
2022-08-23T02:26:39.042Z,1.50
2022-08-23T02:27:39.032Z,1.20
2022-08-23T02:28:40.015Z,1.40
2022-08-23T02:29:39.432Z,1.20
2022-08-23T02:30:38.995Z,1.30
2022-08-23T02:31:38.982Z,1.30
2022-08-23T02:32:38.975Z,1.50
2022-08-23T02:33:38.959Z,1.30
2022-08-23T02:34:38.977Z,1.40
2022-08-23T02:35:38.941Z,1.30
2022-08-23T02:36:38.928Z,1.30
2022-08-23T02:37:38.923Z,1.50
2022-08-23T02:38:38.906Z,1.50
2022-08-23T02:39:39.501Z,1.50
2022-08-23T02:40:38.886Z,1.40
2022-08-23T02:41:38.873Z,1.50
2022-08-23T02:42:38.860Z,1.20
2022-08-23T02:43:41.072Z,1.50
2022-08-23T02:44:38.832Z,1.40
2022-08-23T02:45:38.863Z,1.40
2022-08-23T02:46:38.818Z,1.30
2022-08-23T02:47:38.805Z,1.30
2022-08-23T02:48:38.794Z,0.50
2022-08-23T02:49:38.805Z,0.00
2022-08-23T02:50:38.773Z,0.00
2022-08-23T02:51:38.763Z,0.00
2022-08-23T02:52:38.754Z,0.20
2022-08-23T02:53:38.740Z,0.00
2022-08-23T02:54:38.746Z,0.00
2022-08-23T02:55:38.715Z,0.00
2022-08-23T02:56:38.839Z,0.00
2022-08-23T02:57:38.696Z,0.00
2022-08-23T02:58:38.689Z,0.00
2022-08-23T02:59:38.689Z,0.00
2022-08-23T03:00:38.661Z,0.00
2022-08-23T03:01:38.647Z,0.00
2022-08-23T03:02:38.693Z,0.00
2022-08-23T03:03:38.644Z,0.00
2022-08-23T03:04:38.615Z,0.00
2022-08-23T03:05:38.602Z,0.00
2022-08-23T03:06:38.593Z,0.00
2022-08-23T03:07:38.582Z,0.00
2022-08-23T03:08:38.586Z,0.00
2022-08-23T03:09:38.557Z,0.00
2022-08-23T03:10:38.563Z,0.00
2022-08-23T03:11:38.538Z,0.00
2022-08-23T03:12:38.531Z,0.00
2022-08-23T03:13:38.552Z,0.00
2022-08-23T03:14:38.499Z,0.00
2022-08-23T03:15:38.491Z,0.00
2022-08-23T03:16:38.477Z,0.00
2022-08-23T03:17:38.692Z,0.00
2022-08-23T03:18:38.458Z,0.00
2022-08-23T03:19:38.478Z,0.00
2022-08-23T03:20:38.435Z,0.00
2022-08-23T03:21:38.422Z,0.00
2022-08-23T03:22:38.410Z,0.00
2022-08-23T03:23:38.396Z,0.00
2022-08-23T03:24:38.411Z,0.00
2022-08-23T03:25:38.386Z,0.00
2022-08-23T03:26:38.362Z,0.00
2022-08-23T03:27:44.604Z,0.00
2022-08-23T03:28:39.340Z,0.00
2022-08-23T03:29:38.375Z,0.00
2022-08-23T03:30:38.454Z,0.00
2022-08-23T03:31:38.306Z,0.00
2022-08-23T03:32:38.303Z,0.00
2022-08-23T03:33:46.013Z,0.00
2022-08-23T03:34:38.273Z,0.20
2022-08-23T03:35:38.274Z,0.00
2022-08-23T03:36:38.557Z,0.00
2022-08-23T03:37:38.237Z,0.00
2022-08-23T03:38:38.223Z,0.00
2022-08-23T03:39:38.214Z,0.00
2022-08-23T03:40:38.214Z,0.00
2022-08-23T03:41:38.197Z,0.00
2022-08-23T03:42:38.185Z,0.00
2022-08-23T03:43:38.172Z,0.00
2022-08-23T03:44:38.164Z,0.00
2022-08-23T03:45:38.184Z,0.00
2022-08-23T03:46:38.129Z,0.00
2022-08-23T03:47:38.415Z,0.00
2022-08-23T03:48:38.114Z,0.00
2022-08-23T03:49:38.098Z,0.00
2022-08-23T03:50:38.107Z,0.00
2022-08-23T03:51:38.166Z,0.00
2022-08-23T03:52:38.065Z,0.00
2022-08-23T03:53:38.468Z,0.00
2022-08-23T03:54:38.041Z,0.00
2022-08-23T03:55:38.481Z,0.00
2022-08-23T03:56:38.021Z,0.00
2022-08-23T03:57:38.008Z,0.00
2022-08-23T03:58:38.003Z,0.00
2022-08-23T03:59:37.997Z,0.00
2022-08-23T04:00:37.974Z,0.00
2022-08-23T04:01:38.028Z,0.00
2022-08-23T04:02:37.947Z,0.00
2022-08-23T04:03:37.937Z,0.00
2022-08-23T04:04:38.065Z,0.00
2022-08-23T04:05:37.931Z,0.00
2022-08-23T04:06:37.917Z,0.00
2022-08-23T04:07:37.892Z,0.00
2022-08-23T04:08:37.880Z,0.00
2022-08-23T04:09:37.868Z,0.00
2022-08-23T04:10:38.024Z,0.00
2022-08-23T04:11:37.845Z,0.00
2022-08-23T04:12:37.838Z,0.00
2022-08-23T04:13:37.822Z,0.00
2022-08-23T04:14:37.809Z,0.00
2022-08-23T04:15:37.827Z,0.00
2022-08-23T04:16:37.794Z,0.00
2022-08-23T04:17:37.773Z,0.00
2022-08-23T04:18:37.766Z,0.00
2022-08-23T04:19:37.780Z,0.00
2022-08-23T04:20:37.746Z,0.00
2022-08-23T04:21:37.731Z,0.10
2022-08-23T04:22:37.718Z,0.00
2022-08-23T04:23:37.930Z,0.10
2022-08-23T04:24:37.699Z,0.00
2022-08-23T04:25:37.705Z,0.00
2022-08-23T04:26:37.677Z,0.00
2022-08-23T04:27:37.712Z,0.10
2022-08-23T04:28:37.656Z,0.00
2022-08-23T04:29:37.650Z,0.00
2022-08-23T04:30:37.657Z,0.00
2022-08-23T04:31:37.638Z,0.00
2022-08-23T04:32:37.608Z,0.00
2022-08-23T04:33:40.362Z,0.00
2022-08-23T04:34:37.590Z,0.00
2022-08-23T04:35:37.580Z,0.00
2022-08-23T04:36:37.587Z,0.00
2022-08-23T04:37:37.549Z,0.00
2022-08-23T04:38:37.566Z,0.00
2022-08-23T04:39:37.530Z,0.00
2022-08-23T04:40:38.538Z,0.00
2022-08-23T04:41:37.527Z,0.00
2022-08-23T04:42:37.501Z,0.00
2022-08-23T04:43:37.488Z,0.00
2022-08-23T04:44:37.568Z,0.00
2022-08-23T04:45:37.463Z,0.00
2022-08-23T04:46:37.492Z,0.00
2022-08-23T04:47:37.476Z,0.00
2022-08-23T04:48:37.431Z,0.00
2022-08-23T04:49:37.414Z,0.00
2022-08-23T04:50:37.412Z,0.00
2022-08-23T04:51:37.409Z,0.00
2022-08-23T04:52:37.382Z,0.00
2022-08-23T04:53:37.376Z,0.10
2022-08-23T04:54:37.378Z,0.00
2022-08-23T04:55:37.448Z,0.00
2022-08-23T04:56:37.336Z,0.00
2022-08-23T04:57:37.322Z,0.00
2022-08-23T04:58:37.334Z,0.00
2022-08-23T04:59:37.318Z,0.00
2022-08-23T05:00:37.377Z,0.00
2022-08-23T05:01:37.488Z,0.00
2022-08-23T05:02:37.291Z,0.00
2022-08-23T05:03:37.258Z,0.00
2022-08-23T05:04:37.245Z,0.00
2022-08-23T05:05:37.241Z,0.00
2022-08-23T05:06:37.241Z,0.00
2022-08-23T05:07:42.140Z,0.00
2022-08-23T05:08:38.196Z,0.00
2022-08-23T05:09:37.187Z,0.00
2022-08-23T05:10:37.173Z,0.00
2022-08-23T05:11:37.161Z,0.00
2022-08-23T05:12:37.401Z,0.00
2022-08-23T05:13:37.183Z,0.10
2022-08-23T05:14:37.129Z,0.00
2022-08-23T05:15:37.119Z,0.20
2022-08-23T05:16:37.108Z,0.20
2022-08-23T05:17:37.139Z,0.20
2022-08-23T05:18:37.568Z,0.10
2022-08-23T05:19:37.514Z,0.00
2022-08-23T05:20:38.059Z,0.00
2022-08-23T05:21:37.053Z,0.30
2022-08-23T05:22:37.059Z,0.20
2022-08-23T05:23:37.050Z,0.20
2022-08-23T05:24:37.021Z,0.30
2022-08-23T05:25:37.003Z,0.10
2022-08-23T05:26:36.993Z,0.00
2022-08-23T05:27:37.000Z,0.10
2022-08-23T05:28:36.977Z,0.10
2022-08-23T05:29:37.009Z,0.40
2022-08-23T05:30:36.964Z,0.10
2022-08-23T05:31:36.960Z,0.00
2022-08-23T05:32:36.926Z,0.00
2022-08-23T05:33:36.913Z,0.70
2022-08-23T05:34:36.907Z,0.70
2022-08-23T05:35:37.049Z,0.70
2022-08-23T05:36:36.908Z,0.90
2022-08-23T05:37:36.891Z,1.00
2022-08-23T05:38:36.862Z,0.90
2022-08-23T05:39:37.400Z,1.00
2022-08-23T05:40:36.833Z,1.00
2022-08-23T05:41:37.731Z,1.00
2022-08-23T05:42:36.846Z,1.00
2022-08-23T05:43:36.823Z,1.00
2022-08-23T05:44:36.939Z,1.00
2022-08-23T05:45:36.780Z,0.90
2022-08-23T05:46:36.770Z,0.60
2022-08-23T05:47:36.755Z,0.90
2022-08-23T05:48:36.769Z,0.90
2022-08-23T05:49:36.733Z,0.90
2022-08-23T05:50:36.726Z,1.00
2022-08-23T05:51:36.735Z,1.00
2022-08-23T05:52:37.105Z,1.10
2022-08-23T05:53:36.688Z,1.10
2022-08-23T05:54:36.685Z,0.90
2022-08-23T05:55:36.683Z,0.90
2022-08-23T05:56:36.665Z,0.80
2022-08-23T05:57:36.649Z,1.10
2022-08-23T05:58:36.657Z,0.80
2022-08-23T05:59:36.621Z,0.90
2022-08-23T06:00:37.411Z,0.80
2022-08-23T06:01:36.599Z,0.90
2022-08-23T06:02:36.593Z,0.60
2022-08-23T06:03:36.596Z,0.10
2022-08-23T06:04:36.569Z,0.00
2022-08-23T06:05:37.051Z,0.00
2022-08-23T06:06:37.250Z,0.00
2022-08-23T06:07:36.532Z,0.00
2022-08-23T06:08:36.545Z,0.40
2022-08-23T06:09:36.518Z,0.40
2022-08-23T06:10:39.343Z,3.00
2022-08-23T06:11:37.487Z,3.20
2022-08-23T06:12:36.482Z,2.50
2022-08-23T06:13:36.481Z,2.90
2022-08-23T06:14:36.555Z,3.30
2022-08-23T06:15:36.445Z,2.20
2022-08-23T06:16:36.440Z,2.00
2022-08-23T06:17:36.422Z,2.40
2022-08-23T06:18:36.430Z,2.30
2022-08-23T06:19:36.416Z,2.00
2022-08-23T06:20:36.447Z,2.30
2022-08-23T06:21:36.375Z,2.20
2022-08-23T06:22:36.363Z,2.30
2022-08-23T06:23:36.379Z,2.20
2022-08-23T06:24:36.346Z,2.40
2022-08-23T06:25:36.334Z,3.00
2022-08-23T06:26:37.022Z,2.60
2022-08-23T06:27:36.306Z,3.20
2022-08-23T06:28:36.389Z,2.20
2022-08-23T06:29:37.289Z,2.00
2022-08-23T06:30:39.617Z,2.00
2022-08-23T06:31:36.271Z,1.90
2022-08-23T06:32:36.314Z,2.00
2022-08-23T06:33:36.312Z,2.10
2022-08-23T06:34:36.248Z,2.30
2022-08-23T06:35:38.643Z,2.30
2022-08-23T06:36:36.228Z,2.10
2022-08-23T06:37:37.064Z,2.80
2022-08-23T06:38:36.207Z,2.30
2022-08-23T06:39:37.631Z,2.40
2022-08-23T06:40:36.164Z,2.00
2022-08-23T06:41:36.209Z,2.00
2022-08-23T06:42:38.808Z,1.90
2022-08-23T06:43:37.341Z,2.00
2022-08-23T06:44:36.142Z,2.00
2022-08-23T06:45:36.107Z,2.00
2022-08-23T06:46:36.147Z,2.20
2022-08-23T06:47:36.091Z,3.00
2022-08-23T06:48:36.094Z,2.50
2022-08-23T06:49:36.065Z,2.00
2022-08-23T06:50:36.055Z,2.10
2022-08-23T06:51:36.044Z,2.40
2022-08-23T06:52:36.052Z,2.20
2022-08-23T06:53:36.027Z,1.70
2022-08-23T06:54:36.043Z,3.60
2022-08-23T06:55:35.994Z,3.60
2022-08-23T06:56:36.094Z,3.70
2022-08-23T06:57:35.975Z,3.60
2022-08-23T06:58:35.968Z,3.60
2022-08-23T06:59:35.973Z,3.20
2022-08-23T07:00:36.057Z,3.00
2022-08-23T07:01:48.817Z,2.80
2022-08-23T07:02:36.973Z,2.50
2022-08-23T07:03:36.606Z,3.10
2022-08-23T07:04:35.939Z,3.10
2022-08-23T07:05:35.885Z,3.40
2022-08-23T07:06:35.879Z,3.20
2022-08-23T07:07:39.789Z,3.30
2022-08-23T07:08:36.860Z,2.90
2022-08-23T07:09:35.847Z,3.00
2022-08-23T07:10:35.850Z,3.20
2022-08-23T07:11:36.576Z,3.40
2022-08-23T07:12:35.821Z,3.10
2022-08-23T07:13:35.821Z,3.20
2022-08-23T07:14:35.785Z,3.20
2022-08-23T07:15:35.876Z,2.10
2022-08-23T07:16:35.828Z,2.20
2022-08-23T07:17:36.534Z,2.00
2022-08-23T07:18:35.755Z,2.10
2022-08-23T07:19:35.753Z,2.10
2022-08-23T07:20:35.737Z,1.90
2022-08-23T07:21:35.708Z,2.00
2022-08-23T07:22:35.703Z,2.10
2022-08-23T07:23:35.685Z,1.60
2022-08-23T07:24:35.679Z,1.80
2022-08-23T07:25:35.683Z,2.00
2022-08-23T07:26:35.649Z,1.80
2022-08-23T07:27:35.681Z,1.90
2022-08-23T07:28:35.783Z,1.80
2022-08-23T07:29:35.622Z,1.80
2022-08-23T07:30:35.632Z,1.70
2022-08-23T07:31:35.677Z,1.80
2022-08-23T07:32:35.941Z,1.90
2022-08-23T07:33:35.584Z,1.70
2022-08-23T07:34:35.686Z,1.80
2022-08-23T07:35:40.048Z,2.10
2022-08-23T07:36:35.986Z,1.80
2022-08-23T07:37:35.531Z,2.00
2022-08-23T07:38:35.519Z,2.10
2022-08-23T07:39:35.519Z,2.00
2022-08-23T07:40:39.048Z,2.10
2022-08-23T07:41:36.494Z,1.90
2022-08-23T07:42:35.480Z,1.90
2022-08-23T07:43:35.467Z,1.60
2022-08-23T07:44:35.455Z,1.90
2022-08-23T07:45:35.461Z,1.80
2022-08-23T07:46:35.490Z,1.90
2022-08-23T07:47:35.419Z,1.90
2022-08-23T07:48:53.072Z,1.90
2022-08-23T07:49:36.441Z,3.60
2022-08-23T07:50:35.388Z,2.80
2022-08-23T07:51:35.376Z,2.50
2022-08-23T07:52:35.376Z,2.40
2022-08-23T07:53:37.291Z,2.30
2022-08-23T07:54:35.357Z,2.30
2022-08-23T07:55:35.348Z,2.20
2022-08-23T07:56:35.319Z,1.90
2022-08-23T07:57:35.324Z,2.10
2022-08-23T07:58:35.308Z,1.90
2022-08-23T07:59:35.306Z,2.00
2022-08-23T08:00:36.093Z,2.00
2022-08-23T08:01:35.382Z,1.80
2022-08-23T08:02:35.403Z,1.80
2022-08-23T08:03:35.260Z,1.70
2022-08-23T08:04:35.244Z,1.90
2022-08-23T08:05:35.223Z,1.90
2022-08-23T08:06:35.502Z,1.80
2022-08-23T08:07:35.581Z,1.90
2022-08-23T08:08:35.194Z,2.00
2022-08-23T08:09:35.177Z,1.90
2022-08-23T08:10:35.165Z,2.10
2022-08-23T08:11:35.799Z,2.00
2022-08-23T08:12:35.146Z,1.90
2022-08-23T08:13:35.142Z,1.80
2022-08-23T08:14:37.160Z,2.10
2022-08-23T08:15:35.114Z,2.70
2022-08-23T08:16:35.156Z,2.90
2022-08-23T08:17:35.541Z,2.40
2022-08-23T08:18:35.082Z,2.70
2022-08-23T08:19:35.089Z,1.90
2022-08-23T08:20:35.057Z,3.10
2022-08-23T08:21:35.095Z,2.10
2022-08-23T08:22:35.047Z,2.50
2022-08-23T08:23:35.042Z,2.80
2022-08-23T08:24:35.039Z,3.20
2022-08-23T08:25:34.999Z,2.80
2022-08-23T08:26:34.986Z,2.90
2022-08-23T08:27:35.168Z,3.30
2022-08-23T08:28:34.990Z,2.70
2022-08-23T08:29:34.966Z,2.80
2022-08-23T08:30:34.944Z,2.10
2022-08-23T08:31:35.039Z,2.40
2022-08-23T08:32:34.925Z,2.70
2022-08-23T08:33:34.928Z,2.60
2022-08-23T08:34:34.908Z,2.80
2022-08-23T08:35:34.892Z,2.40
2022-08-23T08:36:34.880Z,3.20
2022-08-23T08:37:34.878Z,2.80
2022-08-23T08:38:36.771Z,2.30
2022-08-23T08:39:34.848Z,2.90
2022-08-23T08:40:35.922Z,2.30
2022-08-23T08:41:34.845Z,3.10
2022-08-23T08:42:34.813Z,2.20
2022-08-23T08:43:34.823Z,3.40
2022-08-23T08:44:34.790Z,3.00
2022-08-23T08:45:34.807Z,2.90
2022-08-23T08:46:34.819Z,2.50
2022-08-23T08:47:34.782Z,2.40
2022-08-23T08:48:34.752Z,3.00
2022-08-23T08:49:34.738Z,2.90
2022-08-23T08:50:34.730Z,3.30
2022-08-23T08:51:35.208Z,3.60
2022-08-23T08:52:34.730Z,2.50
2022-08-23T08:53:34.691Z,2.40
2022-08-23T08:54:34.684Z,3.40
2022-08-23T08:55:34.751Z,2.80
2022-08-23T08:56:34.681Z,2.50
2022-08-23T08:57:35.573Z,2.40
2022-08-23T08:58:34.640Z,2.90
2022-08-23T08:59:34.637Z,2.50
2022-08-23T09:00:34.617Z,2.40
2022-08-23T09:01:34.689Z,2.70
2022-08-23T09:02:34.861Z,3.00
2022-08-23T09:03:34.678Z,2.50
2022-08-23T09:04:34.577Z,2.50
2022-08-23T09:05:34.590Z,2.50
2022-08-23T09:06:34.549Z,2.50
2022-08-23T09:07:34.543Z,2.40
2022-08-23T09:08:35.253Z,2.30
2022-08-23T09:09:34.519Z,4.20
2022-08-23T09:10:34.529Z,4.10
2022-08-23T09:11:34.497Z,3.70
2022-08-23T09:12:34.577Z,3.70
2022-08-23T09:13:34.474Z,3.50
2022-08-23T09:14:34.473Z,3.30
2022-08-23T09:15:34.572Z,3.60
2022-08-23T09:16:34.456Z,3.80
2022-08-23T09:17:34.438Z,4.40
2022-08-23T09:18:34.421Z,4.50
2022-08-23T09:19:34.412Z,4.40
2022-08-23T09:20:34.883Z,4.30
2022-08-23T09:21:34.387Z,5.50
2022-08-23T09:22:34.374Z,3.80
2022-08-23T09:23:34.375Z,3.60
2022-08-23T09:24:34.362Z,4.80
2022-08-23T09:25:35.133Z,4.20
2022-08-23T09:26:34.352Z,5.00
2022-08-23T09:27:34.324Z,3.60
2022-08-23T09:28:34.310Z,2.30
2022-08-23T09:29:34.310Z,3.00
2022-08-23T09:30:34.288Z,3.70
2022-08-23T09:31:36.031Z,3.70
2022-08-23T09:32:34.267Z,3.60
2022-08-23T09:33:34.259Z,3.50
2022-08-23T09:34:43.656Z,3.60
2022-08-23T09:35:34.237Z,4.70
2022-08-23T09:36:34.240Z,3.40
2022-08-23T09:37:34.218Z,3.80
2022-08-23T09:38:34.204Z,3.40
2022-08-23T09:39:34.186Z,3.80
2022-08-23T09:40:34.206Z,3.30
2022-08-23T09:41:34.175Z,3.60
2022-08-23T09:42:34.269Z,3.90
2022-08-23T09:43:34.184Z,4.00
2022-08-23T09:44:34.138Z,3.10
2022-08-23T09:45:35.676Z,4.00
2022-08-23T09:46:34.195Z,3.70
2022-08-23T09:47:34.106Z,2.20
2022-08-23T09:48:34.097Z,2.10
2022-08-23T09:49:34.085Z,2.30
2022-08-23T09:50:34.071Z,1.90
2022-08-23T09:51:35.146Z,1.90
2022-08-23T09:52:34.046Z,2.10
2022-08-23T09:53:34.047Z,2.30
2022-08-23T09:54:35.046Z,2.70
2022-08-23T09:55:34.022Z,2.70
2022-08-23T09:56:34.004Z,2.70
2022-08-23T09:57:33.996Z,2.60
2022-08-23T09:58:34.004Z,2.50
2022-08-23T09:59:33.983Z,2.40
2022-08-23T10:00:33.967Z,2.50
2022-08-23T10:01:38.731Z,2.40
2022-08-23T10:02:34.975Z,2.10
2022-08-23T10:03:33.929Z,2.20
2022-08-23T10:04:33.961Z,2.10
2022-08-23T10:05:33.947Z,2.40
2022-08-23T10:06:33.897Z,2.00
2022-08-23T10:07:33.907Z,2.20
2022-08-23T10:08:33.878Z,2.00
2022-08-23T10:09:33.868Z,2.00
2022-08-23T10:10:33.872Z,2.10
2022-08-23T10:11:33.862Z,2.00
2022-08-23T10:12:33.833Z,2.30
2022-08-23T10:13:33.820Z,3.30
2022-08-23T10:14:33.993Z,3.30
2022-08-23T10:15:36.189Z,2.60
2022-08-23T10:16:33.968Z,2.20
2022-08-23T10:17:33.778Z,2.90
2022-08-23T10:18:33.765Z,3.10
2022-08-23T10:19:33.758Z,2.70
2022-08-23T10:20:33.836Z,2.40
2022-08-23T10:21:33.772Z,2.00
2022-08-23T10:22:33.730Z,2.20
2022-08-23T10:23:33.711Z,2.20
2022-08-23T10:24:33.704Z,2.10
2022-08-23T10:25:33.697Z,2.30
2022-08-23T10:26:33.694Z,2.20
2022-08-23T10:27:33.668Z,1.80
2022-08-23T10:28:36.895Z,2.00
2022-08-23T10:29:34.652Z,2.10
2022-08-23T10:30:33.636Z,1.90
2022-08-23T10:31:33.692Z,2.00
2022-08-23T10:32:33.659Z,2.90
2022-08-23T10:33:33.658Z,2.70
2022-08-23T10:34:33.611Z,2.50
2022-08-23T10:35:33.630Z,2.20
2022-08-23T10:36:33.623Z,1.90
2022-08-23T10:37:33.624Z,2.10
2022-08-23T10:38:33.546Z,2.10
2022-08-23T10:39:33.723Z,2.20
2022-08-23T10:40:33.715Z,2.10
2022-08-23T10:41:33.539Z,2.20
2022-08-23T10:42:33.526Z,2.80
2022-08-23T10:43:33.494Z,2.10
2022-08-23T10:44:33.497Z,2.10
2022-08-23T10:45:33.475Z,1.90
2022-08-23T10:46:33.532Z,2.00
2022-08-23T10:47:33.464Z,1.80
2022-08-23T10:48:33.475Z,2.00
2022-08-23T10:49:33.430Z,1.90
2022-08-23T10:50:33.412Z,1.70
2022-08-23T10:51:33.414Z,1.90
2022-08-23T10:52:33.730Z,2.30
2022-08-23T10:53:33.382Z,2.20
2022-08-23T10:54:33.391Z,2.30
2022-08-23T10:55:33.372Z,2.20
2022-08-23T10:56:33.394Z,2.10
2022-08-23T10:57:33.375Z,2.10
2022-08-23T10:58:33.363Z,2.20
2022-08-23T10:59:33.421Z,2.40
2022-08-23T11:00:33.338Z,2.00
2022-08-23T11:01:33.430Z,2.20
2022-08-23T11:02:33.396Z,2.40
2022-08-23T11:03:33.338Z,2.50
2022-08-23T11:04:33.377Z,2.40
2022-08-23T11:05:33.333Z,2.80
2022-08-23T11:06:33.374Z,3.00
2022-08-23T11:07:33.379Z,2.80
2022-08-23T11:08:33.230Z,2.80
2022-08-23T11:09:33.578Z,3.30
2022-08-23T11:10:33.200Z,3.10
2022-08-23T11:11:33.190Z,3.30
2022-08-23T11:12:33.186Z,3.50
2022-08-23T11:13:33.180Z,3.00
2022-08-23T11:14:33.171Z,3.20
2022-08-23T11:15:33.190Z,2.70
2022-08-23T11:16:33.126Z,3.10
2022-08-23T11:17:33.121Z,2.50
2022-08-23T11:18:33.422Z,2.30
2022-08-23T11:19:33.116Z,2.50
2022-08-23T11:20:33.102Z,2.50
2022-08-23T11:21:33.074Z,2.80
2022-08-23T11:22:33.067Z,2.80
2022-08-23T11:23:33.070Z,2.70
2022-08-23T11:24:33.441Z,2.80
2022-08-23T11:25:33.030Z,2.80
2022-08-23T11:26:33.016Z,2.70
2022-08-23T11:27:33.064Z,2.70
2022-08-23T11:28:32.999Z,2.80
2022-08-23T11:29:33.011Z,2.80
2022-08-23T11:30:33.074Z,3.20
2022-08-23T11:31:32.967Z,3.10
2022-08-23T11:32:32.954Z,3.40
2022-08-23T11:33:32.947Z,3.10
2022-08-23T11:34:32.928Z,2.90
2022-08-23T11:35:32.946Z,3.40
2022-08-23T11:36:32.920Z,3.40
2022-08-23T11:37:32.903Z,3.90
2022-08-23T11:38:32.884Z,3.10
2022-08-23T11:39:32.945Z,3.10
2022-08-23T11:40:32.908Z,3.00
2022-08-23T11:41:33.068Z,2.80
2022-08-23T11:42:32.846Z,3.60
2022-08-23T11:43:32.839Z,3.10
2022-08-23T11:44:32.820Z,2.90
2022-08-23T11:45:33.247Z,2.90
2022-08-23T11:46:32.864Z,2.40
2022-08-23T11:47:32.807Z,2.80
2022-08-23T11:48:32.794Z,2.10
2022-08-23T11:49:32.769Z,1.90
2022-08-23T11:50:32.758Z,2.00
2022-08-23T11:51:32.744Z,2.20
2022-08-23T11:52:32.740Z,2.10
2022-08-23T11:53:32.766Z,2.30
2022-08-23T11:54:32.715Z,2.10
2022-08-23T11:55:32.729Z,2.30
2022-08-23T11:56:32.689Z,2.70
2022-08-23T11:57:32.689Z,2.90
2022-08-23T11:58:32.911Z,2.50
2022-08-23T11:59:32.664Z,2.80
2022-08-23T12:00:32.647Z,2.80
2022-08-23T12:01:32.635Z,2.90
2022-08-23T12:02:32.969Z,2.60
2022-08-23T12:03:32.736Z,2.90
2022-08-23T12:04:32.599Z,2.50
2022-08-23T12:05:32.746Z,2.80
2022-08-23T12:06:32.579Z,3.20
2022-08-23T12:07:32.574Z,4.10
2022-08-23T12:08:32.563Z,3.20
2022-08-23T12:09:32.576Z,4.00
2022-08-23T12:10:32.538Z,3.30
2022-08-23T12:11:32.551Z,3.10
2022-08-23T12:12:37.634Z,3.00
2022-08-23T12:13:34.232Z,3.50
2022-08-23T12:14:32.528Z,3.40
2022-08-23T12:15:32.510Z,3.60
2022-08-23T12:16:32.479Z,4.50
2022-08-23T12:17:34.016Z,4.00
2022-08-23T12:18:32.493Z,4.10
2022-08-23T12:19:35.810Z,3.80
2022-08-23T12:20:33.460Z,4.20
2022-08-23T12:21:32.432Z,4.50
2022-08-23T12:22:32.431Z,4.10
2022-08-23T12:23:32.409Z,4.10
2022-08-23T12:24:32.426Z,4.10
2022-08-23T12:25:32.393Z,3.80
2022-08-23T12:26:32.377Z,3.80
2022-08-23T12:27:32.364Z,4.20
2022-08-23T12:28:32.364Z,4.20
2022-08-23T12:29:32.365Z,4.10
2022-08-23T12:30:32.361Z,3.80
2022-08-23T12:31:32.465Z,4.50
2022-08-23T12:32:32.314Z,4.40
2022-08-23T12:33:32.307Z,4.50
2022-08-23T12:34:32.778Z,4.50
2022-08-23T12:35:32.281Z,5.00
2022-08-23T12:36:32.271Z,5.00
2022-08-23T12:37:32.265Z,4.70
2022-08-23T12:38:32.253Z,4.70
2022-08-23T12:39:32.239Z,4.60
2022-08-23T12:40:32.265Z,4.40
2022-08-23T12:41:32.217Z,3.90
2022-08-23T12:42:32.207Z,3.50
2022-08-23T12:43:32.197Z,4.00
2022-08-23T12:44:34.102Z,3.90
2022-08-23T12:45:32.178Z,4.60
2022-08-23T12:46:32.250Z,4.00
2022-08-23T12:47:32.155Z,5.10
2022-08-23T12:48:32.146Z,4.70
2022-08-23T12:49:32.387Z,4.70
2022-08-23T12:50:33.133Z,5.90
2022-08-23T12:51:32.116Z,4.50
2022-08-23T12:52:32.110Z,6.30
2022-08-23T12:53:32.104Z,5.00
2022-08-23T12:54:32.091Z,5.40
2022-08-23T12:55:32.100Z,0.80
2022-08-23T12:56:32.590Z,0.60
2022-08-23T12:57:32.065Z,3.70
2022-08-23T12:58:33.708Z,5.50
2022-08-23T12:59:32.058Z,0.90
2022-08-23T13:00:32.029Z,1.00
2022-08-23T13:01:32.053Z,9.80
2022-08-23T13:02:32.119Z,9.20
2022-08-23T13:03:31.997Z,9.70
2022-08-23T13:04:32.110Z,9.90
2022-08-23T13:05:31.984Z,11.50
2022-08-23T13:06:31.969Z,11.50
2022-08-23T13:07:31.956Z,9.00
2022-08-23T13:08:34.956Z,9.90
2022-08-23T13:09:31.940Z,10.30
2022-08-23T13:10:31.982Z,10.10
2022-08-23T13:11:31.915Z,10.40
2022-08-23T13:12:31.907Z,11.10
2022-08-23T13:13:31.902Z,11.20
2022-08-23T13:14:31.894Z,11.70
2022-08-23T13:15:31.957Z,12.40
2022-08-23T13:16:31.874Z,5.10
2022-08-23T13:17:31.869Z,5.60
2022-08-23T13:18:31.856Z,9.70